sensor_id;sensor_type;location;lat;lon;timestamp;P1;durP1;ratioP1;P2;durP2;ratioP2
6207;SDS011;3137;51.550;7.060;2022-08-21T00:01:37;4.00;;;3.80;;
6207;SDS011;3137;51.550;7.060;2022-08-21T00:04:05;3.43;;;3.43;;
6207;SDS011;3137;51.550;7.060;2022-08-21T00:06:32;3.50;;;3.40;;
6207;SDS011;3137;51.550;7.060;2022-08-21T00:09:00;3.23;;;3.23;;
6207;SDS011;3137;51.550;7.060;2022-08-21T00:11:32;3.90;;;3.70;;
6207;SDS011;3137;51.550;7.060;2022-08-21T00:14:01;4.10;;;3.90;;
6207;SDS011;3137;51.550;7.060;2022-08-21T00:16:29;3.93;;;3.70;;
6207;SDS011;3137;51.550;7.060;2022-08-21T00:18:55;3.47;;;3.43;;
6207;SDS011;3137;51.550;7.060;2022-08-21T00:21:22;4.23;;;3.93;;
6207;SDS011;3137;51.550;7.060;2022-08-21T00:23:48;4.00;;;3.80;;
6207;SDS011;3137;51.550;7.060;2022-08-21T00:26:14;4.67;;;4.17;;
6207;SDS011;3137;51.550;7.060;2022-08-21T00:28:41;3.87;;;3.57;;
6207;SDS011;3137;51.550;7.060;2022-08-21T00:31:07;3.43;;;3.40;;
6207;SDS011;3137;51.550;7.060;2022-08-21T00:33:34;3.80;;;3.60;;
6207;SDS011;3137;51.550;7.060;2022-08-21T00:36:00;3.80;;;3.80;;
6207;SDS011;3137;51.550;7.060;2022-08-21T00:38:27;4.20;;;4.10;;
6207;SDS011;3137;51.550;7.060;2022-08-21T00:40:54;4.03;;;3.93;;
6207;SDS011;3137;51.550;7.060;2022-08-21T00:43:26;4.73;;;4.37;;
6207;SDS011;3137;51.550;7.060;2022-08-21T00:45:54;4.07;;;3.97;;
6207;SDS011;3137;51.550;7.060;2022-08-21T00:48:21;4.57;;;4.43;;
6207;SDS011;3137;51.550;7.060;2022-08-21T00:50:50;4.03;;;3.83;;
6207;SDS011;3137;51.550;7.060;2022-08-21T00:53:21;5.10;;;4.87;;
6207;SDS011;3137;51.550;7.060;2022-08-21T00:55:48;4.40;;;4.30;;
6207;SDS011;3137;51.550;7.060;2022-08-21T00:58:15;5.27;;;4.93;;
6207;SDS011;3137;51.550;7.060;2022-08-21T01:00:44;4.93;;;4.50;;
6207;SDS011;3137;51.550;7.060;2022-08-21T01:03:12;4.27;;;4.17;;
6207;SDS011;3137;51.550;7.060;2022-08-21T01:05:41;4.00;;;3.90;;
6207;SDS011;3137;51.550;7.060;2022-08-21T01:08:08;3.33;;;3.33;;
6207;SDS011;3137;51.550;7.060;2022-08-21T01:10:36;4.57;;;4.27;;
6207;SDS011;3137;51.550;7.060;2022-08-21T01:13:05;4.43;;;4.23;;
6207;SDS011;3137;51.550;7.060;2022-08-21T01:15:34;4.60;;;4.20;;
6207;SDS011;3137;51.550;7.060;2022-08-21T01:18:03;5.13;;;4.43;;
6207;SDS011;3137;51.550;7.060;2022-08-21T01:20:30;3.90;;;3.80;;
6207;SDS011;3137;51.550;7.060;2022-08-21T01:22:58;4.60;;;4.40;;
6207;SDS011;3137;51.550;7.060;2022-08-21T01:25:25;4.43;;;4.23;;
6207;SDS011;3137;51.550;7.060;2022-08-21T01:27:51;4.27;;;4.03;;
6207;SDS011;3137;51.550;7.060;2022-08-21T01:30:19;7.93;;;4.40;;
6207;SDS011;3137;51.550;7.060;2022-08-21T01:32:49;4.43;;;4.40;;
6207;SDS011;3137;51.550;7.060;2022-08-21T01:35:17;3.97;;;3.87;;
6207;SDS011;3137;51.550;7.060;2022-08-21T01:37:45;4.83;;;4.63;;
6207;SDS011;3137;51.550;7.060;2022-08-21T01:40:13;4.93;;;4.63;;
6207;SDS011;3137;51.550;7.060;2022-08-21T01:42:39;4.90;;;4.70;;
6207;SDS011;3137;51.550;7.060;2022-08-21T01:45:06;4.30;;;4.10;;
6207;SDS011;3137;51.550;7.060;2022-08-21T01:47:34;5.27;;;4.97;;
6207;SDS011;3137;51.550;7.060;2022-08-21T01:50:01;5.27;;;4.87;;
6207;SDS011;3137;51.550;7.060;2022-08-21T01:52:28;4.23;;;4.13;;
6207;SDS011;3137;51.550;7.060;2022-08-21T01:54:55;4.17;;;3.97;;
6207;SDS011;3137;51.550;7.060;2022-08-21T01:57:21;4.77;;;4.57;;
6207;SDS011;3137;51.550;7.060;2022-08-21T01:59:51;5.00;;;4.60;;
6207;SDS011;3137;51.550;7.060;2022-08-21T02:02:19;5.43;;;5.23;;
6207;SDS011;3137;51.550;7.060;2022-08-21T02:04:45;4.30;;;4.20;;
6207;SDS011;3137;51.550;7.060;2022-08-21T02:07:11;4.60;;;4.40;;
6207;SDS011;3137;51.550;7.060;2022-08-21T02:09:38;4.97;;;4.67;;
6207;SDS011;3137;51.550;7.060;2022-08-21T02:12:05;5.40;;;4.70;;
6207;SDS011;3137;51.550;7.060;2022-08-21T02:14:31;4.17;;;4.07;;
6207;SDS011;3137;51.550;7.060;2022-08-21T02:16:58;4.43;;;4.33;;
6207;SDS011;3137;51.550;7.060;2022-08-21T02:19:35;4.57;;;4.37;;
6207;SDS011;3137;51.550;7.060;2022-08-21T02:22:06;4.90;;;4.63;;
6207;SDS011;3137;51.550;7.060;2022-08-21T02:24:37;3.87;;;3.77;;
6207;SDS011;3137;51.550;7.060;2022-08-21T02:27:20;5.10;;;4.33;;
6207;SDS011;3137;51.550;7.060;2022-08-21T02:29:52;7.00;;;5.10;;
6207;SDS011;3137;51.550;7.060;2022-08-21T02:32:19;4.30;;;4.20;;
6207;SDS011;3137;51.550;7.060;2022-08-21T02:34:45;5.30;;;5.20;;
6207;SDS011;3137;51.550;7.060;2022-08-21T02:37:12;5.50;;;5.30;;
6207;SDS011;3137;51.550;7.060;2022-08-21T02:39:38;5.33;;;5.13;;
6207;SDS011;3137;51.550;7.060;2022-08-21T02:42:05;6.27;;;5.97;;
6207;SDS011;3137;51.550;7.060;2022-08-21T02:44:31;6.90;;;6.37;;
6207;SDS011;3137;51.550;7.060;2022-08-21T02:47:00;5.83;;;5.37;;
6207;SDS011;3137;51.550;7.060;2022-08-21T02:49:26;5.63;;;5.33;;
6207;SDS011;3137;51.550;7.060;2022-08-21T02:51:52;4.80;;;4.67;;
6207;SDS011;3137;51.550;7.060;2022-08-21T02:54:19;5.10;;;4.90;;
6207;SDS011;3137;51.550;7.060;2022-08-21T02:56:45;6.43;;;5.40;;
6207;SDS011;3137;51.550;7.060;2022-08-21T02:59:11;5.00;;;4.80;;
6207;SDS011;3137;51.550;7.060;2022-08-21T03:01:38;5.10;;;4.90;;
6207;SDS011;3137;51.550;7.060;2022-08-21T03:04:05;4.23;;;4.13;;
6207;SDS011;3137;51.550;7.060;2022-08-21T03:06:31;5.53;;;5.33;;
6207;SDS011;3137;51.550;7.060;2022-08-21T03:08:57;5.37;;;4.93;;
6207;SDS011;3137;51.550;7.060;2022-08-21T03:11:24;5.43;;;5.33;;
6207;SDS011;3137;51.550;7.060;2022-08-21T03:13:52;5.20;;;5.10;;
6207;SDS011;3137;51.550;7.060;2022-08-21T03:16:18;5.27;;;5.17;;
6207;SDS011;3137;51.550;7.060;2022-08-21T03:18:46;5.30;;;5.20;;
6207;SDS011;3137;51.550;7.060;2022-08-21T03:21:13;7.27;;;6.50;;
6207;SDS011;3137;51.550;7.060;2022-08-21T03:23:39;6.03;;;5.50;;
6207;SDS011;3137;51.550;7.060;2022-08-21T03:26:07;5.73;;;5.40;;
6207;SDS011;3137;51.550;7.060;2022-08-21T03:28:34;5.53;;;5.00;;
6207;SDS011;3137;51.550;7.060;2022-08-21T03:31:01;5.37;;;5.27;;
6207;SDS011;3137;51.550;7.060;2022-08-21T03:33:27;5.53;;;5.23;;
6207;SDS011;3137;51.550;7.060;2022-08-21T03:35:59;6.10;;;5.80;;
6207;SDS011;3137;51.550;7.060;2022-08-21T03:38:29;5.50;;;5.40;;
6207;SDS011;3137;51.550;7.060;2022-08-21T03:40:57;5.57;;;5.30;;
6207;SDS011;3137;51.550;7.060;2022-08-21T03:43:24;5.53;;;5.33;;
6207;SDS011;3137;51.550;7.060;2022-08-21T03:45:50;5.90;;;5.80;;
6207;SDS011;3137;51.550;7.060;2022-08-21T03:48:17;5.47;;;5.37;;
6207;SDS011;3137;51.550;7.060;2022-08-21T03:50:44;4.97;;;4.87;;
6207;SDS011;3137;51.550;7.060;2022-08-21T03:53:13;6.10;;;5.90;;
6207;SDS011;3137;51.550;7.060;2022-08-21T03:55:43;6.70;;;6.07;;
6207;SDS011;3137;51.550;7.060;2022-08-21T03:58:09;6.07;;;5.70;;
6207;SDS011;3137;51.550;7.060;2022-08-21T04:00:43;5.43;;;5.03;;
6207;SDS011;3137;51.550;7.060;2022-08-21T04:03:09;5.93;;;5.77;;
6207;SDS011;3137;51.550;7.060;2022-08-21T04:05:36;7.10;;;6.63;;
6207;SDS011;3137;51.550;7.060;2022-08-21T04:08:04;6.10;;;5.80;;
6207;SDS011;3137;51.550;7.060;2022-08-21T04:10:32;5.33;;;5.10;;
6207;SDS011;3137;51.550;7.060;2022-08-21T04:13:00;5.40;;;5.00;;
6207;SDS011;3137;51.550;7.060;2022-08-21T04:15:28;5.93;;;5.50;;
6207;SDS011;3137;51.550;7.060;2022-08-21T04:17:54;6.47;;;6.23;;
6207;SDS011;3137;51.550;7.060;2022-08-21T04:20:21;5.27;;;5.13;;
6207;SDS011;3137;51.550;7.060;2022-08-21T04:22:49;5.80;;;5.50;;
6207;SDS011;3137;51.550;7.060;2022-08-21T04:25:17;6.87;;;6.57;;
6207;SDS011;3137;51.550;7.060;2022-08-21T04:27:46;6.97;;;6.37;;
6207;SDS011;3137;51.550;7.060;2022-08-21T04:30:13;5.97;;;5.57;;
6207;SDS011;3137;51.550;7.060;2022-08-21T04:32:41;5.57;;;5.47;;
6207;SDS011;3137;51.550;7.060;2022-08-21T04:35:11;5.77;;;5.57;;
6207;SDS011;3137;51.550;7.060;2022-08-21T04:37:39;6.17;;;5.97;;
6207;SDS011;3137;51.550;7.060;2022-08-21T04:40:08;6.40;;;5.97;;
6207;SDS011;3137;51.550;7.060;2022-08-21T04:42:41;5.70;;;5.50;;
6207;SDS011;3137;51.550;7.060;2022-08-21T04:47:47;6.20;;;5.90;;
6207;SDS011;3137;51.550;7.060;2022-08-21T04:50:19;5.67;;;5.40;;
6207;SDS011;3137;51.550;7.060;2022-08-21T04:53:02;5.37;;;5.17;;
6207;SDS011;3137;51.550;7.060;2022-08-21T04:55:29;6.60;;;6.30;;
6207;SDS011;3137;51.550;7.060;2022-08-21T04:57:56;10.23;;;7.40;;
6207;SDS011;3137;51.550;7.060;2022-08-21T05:00:23;6.50;;;6.17;;
6207;SDS011;3137;51.550;7.060;2022-08-21T05:02:51;7.80;;;7.33;;
6207;SDS011;3137;51.550;7.060;2022-08-21T05:05:20;7.77;;;7.20;;
6207;SDS011;3137;51.550;7.060;2022-08-21T05:07:47;9.73;;;8.80;;
6207;SDS011;3137;51.550;7.060;2022-08-21T05:10:14;8.73;;;7.93;;
6207;SDS011;3137;51.550;7.060;2022-08-21T05:12:41;8.80;;;8.33;;
6207;SDS011;3137;51.550;7.060;2022-08-21T05:15:10;8.63;;;8.17;;
6207;SDS011;3137;51.550;7.060;2022-08-21T05:17:39;10.00;;;9.20;;
6207;SDS011;3137;51.550;7.060;2022-08-21T05:20:05;7.73;;;7.43;;
6207;SDS011;3137;51.550;7.060;2022-08-21T05:22:32;8.07;;;7.77;;
6207;SDS011;3137;51.550;7.060;2022-08-21T05:24:58;8.43;;;7.10;;
6207;SDS011;3137;51.550;7.060;2022-08-21T05:27:25;8.30;;;7.60;;
6207;SDS011;3137;51.550;7.060;2022-08-21T05:29:52;9.40;;;8.30;;
6207;SDS011;3137;51.550;7.060;2022-08-21T05:32:19;10.10;;;9.47;;
6207;SDS011;3137;51.550;7.060;2022-08-21T05:34:45;11.70;;;10.47;;
6207;SDS011;3137;51.550;7.060;2022-08-21T05:37:12;17.13;;;12.50;;
6207;SDS011;3137;51.550;7.060;2022-08-21T05:39:39;13.13;;;11.87;;
6207;SDS011;3137;51.550;7.060;2022-08-21T05:42:25;13.93;;;12.53;;
6207;SDS011;3137;51.550;7.060;2022-08-21T05:44:52;14.60;;;12.60;;
6207;SDS011;3137;51.550;7.060;2022-08-21T05:47:19;13.17;;;11.73;;
6207;SDS011;3137;51.550;7.060;2022-08-21T05:49:45;13.00;;;11.93;;
6207;SDS011;3137;51.550;7.060;2022-08-21T05:52:11;11.37;;;10.27;;
6207;SDS011;3137;51.550;7.060;2022-08-21T05:54:39;13.07;;;11.73;;
6207;SDS011;3137;51.550;7.060;2022-08-21T05:57:05;11.47;;;10.50;;
6207;SDS011;3137;51.550;7.060;2022-08-21T05:59:31;17.37;;;12.93;;
6207;SDS011;3137;51.550;7.060;2022-08-21T06:01:58;14.37;;;13.00;;
6207;SDS011;3137;51.550;7.060;2022-08-21T06:04:30;18.50;;;12.00;;
6207;SDS011;3137;51.550;7.060;2022-08-21T06:07:01;11.90;;;11.03;;
6207;SDS011;3137;51.550;7.060;2022-08-21T06:09:28;11.70;;;10.53;;
6207;SDS011;3137;51.550;7.060;2022-08-21T06:11:54;11.30;;;10.37;;
6207;SDS011;3137;51.550;7.060;2022-08-21T06:14:21;13.37;;;11.37;;
6207;SDS011;3137;51.550;7.060;2022-08-21T06:16:47;13.90;;;12.00;;
6207;SDS011;3137;51.550;7.060;2022-08-21T06:19:13;14.13;;;11.53;;
6207;SDS011;3137;51.550;7.060;2022-08-21T06:21:40;12.70;;;11.60;;
6207;SDS011;3137;51.550;7.060;2022-08-21T06:24:06;12.33;;;11.17;;
6207;SDS011;3137;51.550;7.060;2022-08-21T06:26:33;10.33;;;9.63;;
6207;SDS011;3137;51.550;7.060;2022-08-21T06:28:59;11.63;;;10.73;;
6207;SDS011;3137;51.550;7.060;2022-08-21T06:31:27;11.00;;;10.10;;
6207;SDS011;3137;51.550;7.060;2022-08-21T06:33:54;11.47;;;10.67;;
6207;SDS011;3137;51.550;7.060;2022-08-21T06:36:21;14.73;;;11.00;;
6207;SDS011;3137;51.550;7.060;2022-08-21T06:38:47;11.17;;;8.80;;
6207;SDS011;3137;51.550;7.060;2022-08-21T06:41:17;9.83;;;9.00;;
6207;SDS011;3137;51.550;7.060;2022-08-21T06:43:49;8.50;;;7.77;;
6207;SDS011;3137;51.550;7.060;2022-08-21T06:46:15;10.57;;;9.53;;
6207;SDS011;3137;51.550;7.060;2022-08-21T06:48:41;9.00;;;8.37;;
6207;SDS011;3137;51.550;7.060;2022-08-21T06:51:08;10.80;;;10.13;;
6207;SDS011;3137;51.550;7.060;2022-08-21T06:53:35;9.80;;;8.97;;
6207;SDS011;3137;51.550;7.060;2022-08-21T06:56:01;13.10;;;9.30;;
6207;SDS011;3137;51.550;7.060;2022-08-21T06:58:28;7.83;;;7.43;;
6207;SDS011;3137;51.550;7.060;2022-08-21T07:00:54;10.50;;;9.43;;
6207;SDS011;3137;51.550;7.060;2022-08-21T07:03:30;14.13;;;8.77;;
6207;SDS011;3137;51.550;7.060;2022-08-21T07:06:02;9.83;;;8.93;;
6207;SDS011;3137;51.550;7.060;2022-08-21T07:08:29;9.67;;;8.77;;
6207;SDS011;3137;51.550;7.060;2022-08-21T07:10:56;9.13;;;8.53;;
6207;SDS011;3137;51.550;7.060;2022-08-21T07:13:23;10.07;;;9.13;;
6207;SDS011;3137;51.550;7.060;2022-08-21T07:15:49;9.20;;;8.80;;
6207;SDS011;3137;51.550;7.060;2022-08-21T07:18:16;10.37;;;9.47;;
6207;SDS011;3137;51.550;7.060;2022-08-21T07:20:43;15.90;;;9.77;;
6207;SDS011;3137;51.550;7.060;2022-08-21T07:23:31;12.80;;;9.27;;
6207;SDS011;3137;51.550;7.060;2022-08-21T07:25:56;9.27;;;8.50;;
6207;SDS011;3137;51.550;7.060;2022-08-21T07:28:22;7.80;;;7.03;;
6207;SDS011;3137;51.550;7.060;2022-08-21T07:30:53;7.20;;;6.63;;
6207;SDS011;3137;51.550;7.060;2022-08-21T07:33:20;7.37;;;6.80;;
6207;SDS011;3137;51.550;7.060;2022-08-21T07:35:47;8.20;;;7.03;;
6207;SDS011;3137;51.550;7.060;2022-08-21T07:38:13;6.93;;;6.13;;
6207;SDS011;3137;51.550;7.060;2022-08-21T07:40:40;7.40;;;6.87;;
6207;SDS011;3137;51.550;7.060;2022-08-21T07:43:06;10.33;;;6.20;;
6207;SDS011;3137;51.550;7.060;2022-08-21T07:45:32;5.97;;;5.50;;
6207;SDS011;3137;51.550;7.060;2022-08-21T07:47:59;7.30;;;6.50;;
6207;SDS011;3137;51.550;7.060;2022-08-21T07:50:25;11.10;;;6.33;;
6207;SDS011;3137;51.550;7.060;2022-08-21T07:52:52;6.93;;;6.13;;
6207;SDS011;3137;51.550;7.060;2022-08-21T07:55:19;6.43;;;5.47;;
6207;SDS011;3137;51.550;7.060;2022-08-21T07:57:47;5.80;;;5.40;;
6207;SDS011;3137;51.550;7.060;2022-08-21T08:00:15;6.73;;;6.10;;
6207;SDS011;3137;51.550;7.060;2022-08-21T08:02:45;5.87;;;5.37;;
6207;SDS011;3137;51.550;7.060;2022-08-21T08:05:12;5.47;;;4.97;;
6207;SDS011;3137;51.550;7.060;2022-08-21T08:07:39;6.17;;;5.67;;
6207;SDS011;3137;51.550;7.060;2022-08-21T08:10:06;5.43;;;5.03;;
6207;SDS011;3137;51.550;7.060;2022-08-21T08:12:35;5.73;;;5.40;;
6207;SDS011;3137;51.550;7.060;2022-08-21T08:15:02;7.17;;;4.47;;
6207;SDS011;3137;51.550;7.060;2022-08-21T08:17:28;5.50;;;4.70;;
6207;SDS011;3137;51.550;7.060;2022-08-21T08:19:55;4.80;;;4.20;;
6207;SDS011;3137;51.550;7.060;2022-08-21T08:22:22;4.40;;;4.20;;
6207;SDS011;3137;51.550;7.060;2022-08-21T08:24:51;6.10;;;4.70;;
6207;SDS011;3137;51.550;7.060;2022-08-21T08:27:18;9.27;;;4.83;;
6207;SDS011;3137;51.550;7.060;2022-08-21T08:29:45;5.50;;;4.60;;
6207;SDS011;3137;51.550;7.060;2022-08-21T08:32:12;4.13;;;3.60;;
6207;SDS011;3137;51.550;7.060;2022-08-21T08:34:38;4.23;;;4.00;;
6207;SDS011;3137;51.550;7.060;2022-08-21T08:37:06;7.03;;;4.83;;
6207;SDS011;3137;51.550;7.060;2022-08-21T08:39:33;4.63;;;3.83;;
6207;SDS011;3137;51.550;7.060;2022-08-21T08:45:00;9.57;;;3.67;;
6207;SDS011;3137;51.550;7.060;2022-08-21T08:47:27;5.13;;;4.73;;
6207;SDS011;3137;51.550;7.060;2022-08-21T08:52:33;4.00;;;3.70;;
6207;SDS011;3137;51.550;7.060;2022-08-21T08:55:08;3.17;;;2.77;;
6207;SDS011;3137;51.550;7.060;2022-08-21T08:57:36;3.37;;;3.10;;
6207;SDS011;3137;51.550;7.060;2022-08-21T09:00:08;3.10;;;2.90;;
6207;SDS011;3137;51.550;7.060;2022-08-21T09:02:40;5.00;;;3.50;;
6207;SDS011;3137;51.550;7.060;2022-08-21T09:05:09;3.70;;;3.50;;
6207;SDS011;3137;51.550;7.060;2022-08-21T09:16:05;3.90;;;2.23;;
6207;SDS011;3137;51.550;7.060;2022-08-21T09:18:44;2.60;;;2.40;;
6207;SDS011;3137;51.550;7.060;2022-08-21T09:21:30;3.77;;;2.37;;
6207;SDS011;3137;51.550;7.060;2022-08-21T09:24:00;5.30;;;3.33;;
6207;SDS011;3137;51.550;7.060;2022-08-21T09:26:31;3.37;;;2.30;;
6207;SDS011;3137;51.550;7.060;2022-08-21T09:29:10;2.93;;;2.47;;
6207;SDS011;3137;51.550;7.060;2022-08-21T09:31:37;3.17;;;2.53;;
6207;SDS011;3137;51.550;7.060;2022-08-21T09:34:05;3.73;;;1.93;;
6207;SDS011;3137;51.550;7.060;2022-08-21T09:36:42;1.40;;;1.40;;
6207;SDS011;3137;51.550;7.060;2022-08-21T09:39:10;2.00;;;1.87;;
6207;SDS011;3137;51.550;7.060;2022-08-21T09:41:38;1.77;;;1.70;;
6207;SDS011;3137;51.550;7.060;2022-08-21T09:44:06;1.43;;;1.30;;
6207;SDS011;3137;51.550;7.060;2022-08-21T09:46:34;5.77;;;2.30;;
6207;SDS011;3137;51.550;7.060;2022-08-21T09:49:02;2.13;;;2.03;;
6207;SDS011;3137;51.550;7.060;2022-08-21T09:51:33;3.37;;;2.03;;
6207;SDS011;3137;51.550;7.060;2022-08-21T09:56:32;2.00;;;1.80;;
6207;SDS011;3137;51.550;7.060;2022-08-21T10:02:03;3.70;;;1.67;;
6207;SDS011;3137;51.550;7.060;2022-08-21T10:04:49;1.50;;;1.50;;
6207;SDS011;3137;51.550;7.060;2022-08-21T10:07:19;1.57;;;1.47;;
6207;SDS011;3137;51.550;7.060;2022-08-21T10:09:46;1.30;;;1.30;;
6207;SDS011;3137;51.550;7.060;2022-08-21T10:12:25;1.80;;;1.73;;
6207;SDS011;3137;51.550;7.060;2022-08-21T10:15:13;1.00;;;1.00;;
6207;SDS011;3137;51.550;7.060;2022-08-21T10:20:29;6.90;;;1.60;;
6207;SDS011;3137;51.550;7.060;2022-08-21T10:26:02;2.13;;;1.40;;
6207;SDS011;3137;51.550;7.060;2022-08-21T10:28:49;1.20;;;1.20;;
6207;SDS011;3137;51.550;7.060;2022-08-21T10:33:57;1.53;;;1.43;;
6207;SDS011;3137;51.550;7.060;2022-08-21T10:36:41;1.10;;;1.10;;
6207;SDS011;3137;51.550;7.060;2022-08-21T10:45:14;1.47;;;1.20;;
6207;SDS011;3137;51.550;7.060;2022-08-21T10:47:44;1.20;;;1.20;;
6207;SDS011;3137;51.550;7.060;2022-08-21T10:52:51;3.13;;;1.90;;
6207;SDS011;3137;51.550;7.060;2022-08-21T10:55:31;1.53;;;1.53;;
6207;SDS011;3137;51.550;7.060;2022-08-21T10:58:02;1.67;;;1.57;;
6207;SDS011;3137;51.550;7.060;2022-08-21T11:00:36;1.33;;;1.33;;
6207;SDS011;3137;51.550;7.060;2022-08-21T11:06:14;1.97;;;1.87;;
6207;SDS011;3137;51.550;7.060;2022-08-21T11:08:46;1.63;;;1.50;;
6207;SDS011;3137;51.550;7.060;2022-08-21T11:11:18;1.00;;;1.00;;
6207;SDS011;3137;51.550;7.060;2022-08-21T11:13:58;1.50;;;1.50;;
6207;SDS011;3137;51.550;7.060;2022-08-21T11:16:42;2.17;;;0.93;;
6207;SDS011;3137;51.550;7.060;2022-08-21T11:22:35;1.73;;;1.23;;
6207;SDS011;3137;51.550;7.060;2022-08-21T11:24:47;1.73;;;1.00;;
6207;SDS011;3137;51.550;7.060;2022-08-21T11:27:21;1.23;;;1.23;;
6207;SDS011;3137;51.550;7.060;2022-08-21T11:29:53;1.43;;;1.37;;
6207;SDS011;3137;51.550;7.060;2022-08-21T11:43:25;1.57;;;0.90;;
6207;SDS011;3137;51.550;7.060;2022-08-21T11:45:55;2.83;;;1.23;;
6207;SDS011;3137;51.550;7.060;2022-08-21T11:51:22;1.20;;;1.20;;
6207;SDS011;3137;51.550;7.060;2022-08-21T11:54:02;1.50;;;1.30;;
6207;SDS011;3137;51.550;7.060;2022-08-21T11:56:40;1.20;;;1.20;;
6207;SDS011;3137;51.550;7.060;2022-08-21T11:59:11;1.40;;;1.30;;
6207;SDS011;3137;51.550;7.060;2022-08-21T12:01:41;1.40;;;1.30;;
6207;SDS011;3137;51.550;7.060;2022-08-21T12:04:26;3.17;;;1.40;;
6207;SDS011;3137;51.550;7.060;2022-08-21T12:06:55;1.93;;;1.70;;
6207;SDS011;3137;51.550;7.060;2022-08-21T12:12:05;1.43;;;1.43;;
6207;SDS011;3137;51.550;7.060;2022-08-21T12:14:37;1.30;;;1.30;;
6207;SDS011;3137;51.550;7.060;2022-08-21T12:17:07;1.23;;;1.23;;
6207;SDS011;3137;51.550;7.060;2022-08-21T12:19:37;1.80;;;1.40;;
6207;SDS011;3137;51.550;7.060;2022-08-21T12:24:43;1.30;;;1.30;;
6207;SDS011;3137;51.550;7.060;2022-08-21T12:27:30;1.30;;;1.30;;
6207;SDS011;3137;51.550;7.060;2022-08-21T12:30:33;1.10;;;1.10;;
6207;SDS011;3137;51.550;7.060;2022-08-21T12:33:04;2.40;;;1.40;;
6207;SDS011;3137;51.550;7.060;2022-08-21T12:35:38;0.80;;;0.80;;
6207;SDS011;3137;51.550;7.060;2022-08-21T12:38:12;1.20;;;1.20;;
6207;SDS011;3137;51.550;7.060;2022-08-21T12:43:30;1.40;;;1.30;;
6207;SDS011;3137;51.550;7.060;2022-08-21T12:46:02;5.50;;;1.30;;
6207;SDS011;3137;51.550;7.060;2022-08-21T12:51:22;1.60;;;1.60;;
6207;SDS011;3137;51.550;7.060;2022-08-21T12:53:56;3.57;;;1.20;;
6207;SDS011;3137;51.550;7.060;2022-08-21T12:56:25;1.13;;;1.13;;
6207;SDS011;3137;51.550;7.060;2022-08-21T12:58:53;1.20;;;1.20;;
6207;SDS011;3137;51.550;7.060;2022-08-21T13:01:24;0.87;;;0.87;;
6207;SDS011;3137;51.550;7.060;2022-08-21T13:03:55;1.10;;;1.10;;
6207;SDS011;3137;51.550;7.060;2022-08-21T13:06:31;1.03;;;1.03;;
6207;SDS011;3137;51.550;7.060;2022-08-21T13:09:05;2.13;;;2.13;;
6207;SDS011;3137;51.550;7.060;2022-08-21T13:11:34;1.10;;;1.10;;
6207;SDS011;3137;51.550;7.060;2022-08-21T13:14:01;1.10;;;1.10;;
6207;SDS011;3137;51.550;7.060;2022-08-21T13:16:30;1.10;;;1.10;;
6207;SDS011;3137;51.550;7.060;2022-08-21T13:19:02;1.42;;;1.40;;
6207;SDS011;3137;51.550;7.060;2022-08-21T13:21:32;1.07;;;1.07;;
6207;SDS011;3137;51.550;7.060;2022-08-21T13:26:56;1.00;;;1.00;;
6207;SDS011;3137;51.550;7.060;2022-08-21T13:29:27;0.90;;;0.90;;
6207;SDS011;3137;51.550;7.060;2022-08-21T13:31:54;1.67;;;1.10;;
6207;SDS011;3137;51.550;7.060;2022-08-21T13:34:22;0.93;;;0.93;;
6207;SDS011;3137;51.550;7.060;2022-08-21T13:36:54;2.77;;;1.40;;
6207;SDS011;3137;51.550;7.060;2022-08-21T13:39:25;1.30;;;1.20;;
6207;SDS011;3137;51.550;7.060;2022-08-21T13:41:54;1.40;;;1.30;;
6207;SDS011;3137;51.550;7.060;2022-08-21T13:44:31;1.17;;;1.17;;
6207;SDS011;3137;51.550;7.060;2022-08-21T13:46:59;1.27;;;1.27;;
6207;SDS011;3137;51.550;7.060;2022-08-21T13:49:29;1.17;;;1.17;;
6207;SDS011;3137;51.550;7.060;2022-08-21T13:51:56;1.10;;;1.10;;
6207;SDS011;3137;51.550;7.060;2022-08-21T13:54:23;2.30;;;1.27;;
6207;SDS011;3137;51.550;7.060;2022-08-21T13:56:52;1.13;;;1.13;;
6207;SDS011;3137;51.550;7.060;2022-08-21T13:59:23;2.80;;;1.50;;
6207;SDS011;3137;51.550;7.060;2022-08-21T14:04:38;1.43;;;1.40;;
6207;SDS011;3137;51.550;7.060;2022-08-21T14:07:25;1.70;;;1.70;;
6207;SDS011;3137;51.550;7.060;2022-08-21T14:09:52;1.73;;;1.70;;
6207;SDS011;3137;51.550;7.060;2022-08-21T14:12:35;1.47;;;1.37;;
6207;SDS011;3137;51.550;7.060;2022-08-21T14:15:04;1.10;;;1.10;;
6207;SDS011;3137;51.550;7.060;2022-08-21T14:17:35;2.97;;;1.50;;
6207;SDS011;3137;51.550;7.060;2022-08-21T14:20:05;7.90;;;1.70;;
6207;SDS011;3137;51.550;7.060;2022-08-21T14:22:38;1.40;;;1.40;;
6207;SDS011;3137;51.550;7.060;2022-08-21T14:30:47;2.57;;;1.13;;
6207;SDS011;3137;51.550;7.060;2022-08-21T14:35:51;3.80;;;1.00;;
6207;SDS011;3137;51.550;7.060;2022-08-21T14:38:19;1.30;;;1.30;;
6207;SDS011;3137;51.550;7.060;2022-08-21T14:40:48;1.43;;;1.37;;
6207;SDS011;3137;51.550;7.060;2022-08-21T14:43:16;1.63;;;1.30;;
6207;SDS011;3137;51.550;7.060;2022-08-21T14:45:44;1.10;;;1.10;;
6207;SDS011;3137;51.550;7.060;2022-08-21T14:48:10;2.00;;;1.60;;
6207;SDS011;3137;51.550;7.060;2022-08-21T14:50:37;1.37;;;1.37;;
6207;SDS011;3137;51.550;7.060;2022-08-21T14:53:04;1.30;;;1.20;;
6207;SDS011;3137;51.550;7.060;2022-08-21T14:55:36;1.13;;;1.13;;
6207;SDS011;3137;51.550;7.060;2022-08-21T14:58:23;1.43;;;1.23;;
6207;SDS011;3137;51.550;7.060;2022-08-21T15:00:50;0.97;;;0.93;;
6207;SDS011;3137;51.550;7.060;2022-08-21T15:03:18;1.17;;;1.17;;
6207;SDS011;3137;51.550;7.060;2022-08-21T15:05:45;5.40;;;1.23;;
6207;SDS011;3137;51.550;7.060;2022-08-21T15:08:11;1.20;;;1.10;;
6207;SDS011;3137;51.550;7.060;2022-08-21T15:10:37;2.93;;;1.30;;
6207;SDS011;3137;51.550;7.060;2022-08-21T15:13:24;0.80;;;0.80;;
6207;SDS011;3137;51.550;7.060;2022-08-21T15:15:51;1.33;;;1.27;;
6207;SDS011;3137;51.550;7.060;2022-08-21T15:18:22;1.50;;;1.40;;
6207;SDS011;3137;51.550;7.060;2022-08-21T15:20:49;2.15;;;1.40;;
6207;SDS011;3137;51.550;7.060;2022-08-21T15:23:16;1.02;;;1.02;;
6207;SDS011;3137;51.550;7.060;2022-08-21T15:25:43;1.27;;;1.15;;
6207;SDS011;3137;51.550;7.060;2022-08-21T15:28:10;1.33;;;1.10;;
6207;SDS011;3137;51.550;7.060;2022-08-21T15:30:37;1.05;;;1.05;;
6207;SDS011;3137;51.550;7.060;2022-08-21T15:33:05;2.75;;;1.20;;
6207;SDS011;3137;51.550;7.060;2022-08-21T15:35:31;1.15;;;1.15;;
6207;SDS011;3137;51.550;7.060;2022-08-21T15:37:58;1.10;;;1.10;;
6207;SDS011;3137;51.550;7.060;2022-08-21T15:40:25;2.10;;;1.20;;
6207;SDS011;3137;51.550;7.060;2022-08-21T15:42:53;3.05;;;1.20;;
6207;SDS011;3137;51.550;7.060;2022-08-21T15:45:21;1.42;;;1.42;;
6207;SDS011;3137;51.550;7.060;2022-08-21T15:47:48;0.93;;;0.93;;
6207;SDS011;3137;51.550;7.060;2022-08-21T15:50:15;3.40;;;1.30;;
6207;SDS011;3137;51.550;7.060;2022-08-21T15:52:42;1.20;;;1.20;;
6207;SDS011;3137;51.550;7.060;2022-08-21T15:55:09;6.55;;;1.40;;
6207;SDS011;3137;51.550;7.060;2022-08-21T15:57:36;1.00;;;1.00;;
6207;SDS011;3137;51.550;7.060;2022-08-21T16:00:15;1.25;;;1.25;;
6207;SDS011;3137;51.550;7.060;2022-08-21T16:02:44;1.02;;;0.85;;
6207;SDS011;3137;51.550;7.060;2022-08-21T16:05:11;1.20;;;1.20;;
6207;SDS011;3137;51.550;7.060;2022-08-21T16:07:38;1.10;;;1.10;;
6207;SDS011;3137;51.550;7.060;2022-08-21T16:10:05;1.40;;;1.30;;
6207;SDS011;3137;51.550;7.060;2022-08-21T16:12:33;1.25;;;1.25;;
6207;SDS011;3137;51.550;7.060;2022-08-21T16:15:08;1.25;;;1.25;;
6207;SDS011;3137;51.550;7.060;2022-08-21T16:17:45;4.60;;;1.23;;
6207;SDS011;3137;51.550;7.060;2022-08-21T16:20:17;1.00;;;1.00;;
6207;SDS011;3137;51.550;7.060;2022-08-21T16:22:44;3.60;;;1.27;;
6207;SDS011;3137;51.550;7.060;2022-08-21T16:25:11;1.23;;;1.10;;
6207;SDS011;3137;51.550;7.060;2022-08-21T16:27:40;1.10;;;1.10;;
6207;SDS011;3137;51.550;7.060;2022-08-21T16:30:09;1.20;;;1.20;;
6207;SDS011;3137;51.550;7.060;2022-08-21T16:32:35;1.00;;;1.00;;
6207;SDS011;3137;51.550;7.060;2022-08-21T16:35:02;2.67;;;1.00;;
6207;SDS011;3137;51.550;7.060;2022-08-21T16:37:29;1.70;;;1.30;;
6207;SDS011;3137;51.550;7.060;2022-08-21T16:39:55;1.40;;;1.30;;
6207;SDS011;3137;51.550;7.060;2022-08-21T16:42:23;1.90;;;1.37;;
6207;SDS011;3137;51.550;7.060;2022-08-21T16:44:52;3.40;;;1.10;;
6207;SDS011;3137;51.550;7.060;2022-08-21T16:47:19;1.20;;;1.20;;
6207;SDS011;3137;51.550;7.060;2022-08-21T16:49:52;1.10;;;1.10;;